sensor_id;sensor_type;location;lat;lon;timestamp;P1;durP1;ratioP1;P2;durP2;ratioP2
52480;SDS011;38393;52.404;13.532;2023-12-20T00:00:21;2.60;;;1.80;;
52480;SDS011;38393;52.404;13.532;2023-12-20T00:02:46;4.30;;;1.67;;
52480;SDS011;38393;52.404;13.532;2023-12-20T00:05:12;1.47;;;1.20;;
52480;SDS011;38393;52.404;13.532;2023-12-20T00:07:39;1.10;;;0.93;;
52480;SDS011;38393;52.404;13.532;2023-12-20T00:10:04;3.07;;;1.63;;
52480;SDS011;38393;52.404;13.532;2023-12-20T00:12:30;2.80;;;1.37;;
52480;SDS011;38393;52.404;13.532;2023-12-20T00:14:55;2.77;;;1.43;;
52480;SDS011;38393;52.404;13.532;2023-12-20T00:17:21;2.23;;;1.70;;
52480;SDS011;38393;52.404;13.532;2023-12-20T00:19:46;4.07;;;1.70;;
52480;SDS011;38393;52.404;13.532;2023-12-20T00:22:12;1.83;;;1.37;;
52480;SDS011;38393;52.404;13.532;2023-12-20T00:24:37;2.00;;;1.23;;
52480;SDS011;38393;52.404;13.532;2023-12-20T00:27:03;2.17;;;1.23;;
52480;SDS011;38393;52.404;13.532;2023-12-20T00:29:29;3.90;;;2.10;;
52480;SDS011;38393;52.404;13.532;2023-12-20T00:31:54;2.93;;;1.20;;
52480;SDS011;38393;52.404;13.532;2023-12-20T00:34:19;2.07;;;1.10;;
52480;SDS011;38393;52.404;13.532;2023-12-20T00:36:45;2.97;;;1.40;;
52480;SDS011;38393;52.404;13.532;2023-12-20T00:39:10;3.73;;;1.80;;
52480;SDS011;38393;52.404;13.532;2023-12-20T00:41:36;4.93;;;1.73;;
52480;SDS011;38393;52.404;13.532;2023-12-20T00:44:02;2.70;;;1.37;;
52480;SDS011;38393;52.404;13.532;2023-12-20T00:46:27;1.40;;;1.10;;
52480;SDS011;38393;52.404;13.532;2023-12-20T00:48:53;3.13;;;1.40;;
52480;SDS011;38393;52.404;13.532;2023-12-20T00:51:18;1.70;;;1.47;;
52480;SDS011;38393;52.404;13.532;2023-12-20T00:53:44;2.33;;;1.27;;
52480;SDS011;38393;52.404;13.532;2023-12-20T00:56:09;4.07;;;1.27;;
52480;SDS011;38393;52.404;13.532;2023-12-20T00:58:35;2.70;;;1.60;;
52480;SDS011;38393;52.404;13.532;2023-12-20T01:01:00;2.93;;;1.43;;
52480;SDS011;38393;52.404;13.532;2023-12-20T01:03:26;3.00;;;1.40;;
52480;SDS011;38393;52.404;13.532;2023-12-20T01:05:51;2.83;;;1.37;;
52480;SDS011;38393;52.404;13.532;2023-12-20T01:08:17;1.67;;;1.37;;
52480;SDS011;38393;52.404;13.532;2023-12-20T01:10:42;2.73;;;1.40;;
52480;SDS011;38393;52.404;13.532;2023-12-20T01:13:08;4.03;;;2.13;;
52480;SDS011;38393;52.404;13.532;2023-12-20T01:15:33;1.73;;;1.50;;
52480;SDS011;38393;52.404;13.532;2023-12-20T01:17:59;4.73;;;1.97;;
52480;SDS011;38393;52.404;13.532;2023-12-20T01:20:24;3.07;;;1.43;;
52480;SDS011;38393;52.404;13.532;2023-12-20T01:22:50;1.50;;;0.93;;
52480;SDS011;38393;52.404;13.532;2023-12-20T01:25:16;3.77;;;2.13;;
52480;SDS011;38393;52.404;13.532;2023-12-20T01:27:41;2.37;;;1.13;;
52480;SDS011;38393;52.404;13.532;2023-12-20T01:30:07;1.70;;;0.90;;
52480;SDS011;38393;52.404;13.532;2023-12-20T01:32:32;2.00;;;1.40;;
52480;SDS011;38393;52.404;13.532;2023-12-20T01:34:58;1.77;;;1.30;;
52480;SDS011;38393;52.404;13.532;2023-12-20T01:37:23;2.30;;;1.40;;
52480;SDS011;38393;52.404;13.532;2023-12-20T01:39:54;3.40;;;1.33;;
52480;SDS011;38393;52.404;13.532;2023-12-20T01:42:19;2.17;;;1.30;;
52480;SDS011;38393;52.404;13.532;2023-12-20T01:44:45;2.37;;;1.60;;
52480;SDS011;38393;52.404;13.532;2023-12-20T01:47:10;3.50;;;1.33;;
52480;SDS011;38393;52.404;13.532;2023-12-20T01:49:36;2.10;;;1.40;;
52480;SDS011;38393;52.404;13.532;2023-12-20T01:52:02;2.07;;;1.40;;
52480;SDS011;38393;52.404;13.532;2023-12-20T01:54:28;1.63;;;0.90;;
52480;SDS011;38393;52.404;13.532;2023-12-20T01:56:54;2.37;;;1.60;;
52480;SDS011;38393;52.404;13.532;2023-12-20T01:59:19;5.00;;;1.70;;
52480;SDS011;38393;52.404;13.532;2023-12-20T02:01:46;1.57;;;1.10;;
52480;SDS011;38393;52.404;13.532;2023-12-20T02:04:12;2.10;;;1.30;;
52480;SDS011;38393;52.404;13.532;2023-12-20T02:06:38;2.00;;;1.17;;
52480;SDS011;38393;52.404;13.532;2023-12-20T02:09:05;3.07;;;1.50;;
52480;SDS011;38393;52.404;13.532;2023-12-20T02:11:31;1.17;;;0.87;;
52480;SDS011;38393;52.404;13.532;2023-12-20T02:13:57;1.93;;;1.43;;
52480;SDS011;38393;52.404;13.532;2023-12-20T02:16:23;2.17;;;1.40;;
52480;SDS011;38393;52.404;13.532;2023-12-20T02:18:48;3.60;;;1.63;;
52480;SDS011;38393;52.404;13.532;2023-12-20T02:21:14;2.53;;;1.53;;
52480;SDS011;38393;52.404;13.532;2023-12-20T02:23:40;1.70;;;1.00;;
52480;SDS011;38393;52.404;13.532;2023-12-20T02:26:05;3.77;;;1.37;;
52480;SDS011;38393;52.404;13.532;2023-12-20T02:28:31;1.67;;;1.30;;
52480;SDS011;38393;52.404;13.532;2023-12-20T02:30:57;2.63;;;1.30;;
52480;SDS011;38393;52.404;13.532;2023-12-20T02:33:22;1.93;;;1.40;;
52480;SDS011;38393;52.404;13.532;2023-12-20T02:35:48;3.73;;;1.70;;
52480;SDS011;38393;52.404;13.532;2023-12-20T02:38:13;2.27;;;1.20;;
52480;SDS011;38393;52.404;13.532;2023-12-20T02:40:39;1.73;;;1.10;;
52480;SDS011;38393;52.404;13.532;2023-12-20T02:43:04;2.97;;;1.33;;
52480;SDS011;38393;52.404;13.532;2023-12-20T02:45:29;2.83;;;1.40;;
52480;SDS011;38393;52.404;13.532;2023-12-20T02:47:55;2.40;;;1.50;;
52480;SDS011;38393;52.404;13.532;2023-12-20T02:50:21;2.13;;;1.20;;
52480;SDS011;38393;52.404;13.532;2023-12-20T02:52:46;3.80;;;1.93;;
52480;SDS011;38393;52.404;13.532;2023-12-20T02:55:12;2.33;;;1.43;;
52480;SDS011;38393;52.404;13.532;2023-12-20T02:57:38;3.30;;;1.80;;
52480;SDS011;38393;52.404;13.532;2023-12-20T03:00:07;4.67;;;1.70;;
52480;SDS011;38393;52.404;13.532;2023-12-20T03:02:35;2.73;;;1.30;;
52480;SDS011;38393;52.404;13.532;2023-12-20T03:05:01;3.80;;;1.33;;
52480;SDS011;38393;52.404;13.532;2023-12-20T03:07:27;3.20;;;1.60;;
52480;SDS011;38393;52.404;13.532;2023-12-20T03:09:52;1.83;;;1.10;;
52480;SDS011;38393;52.404;13.532;2023-12-20T03:12:18;2.57;;;1.47;;
52480;SDS011;38393;52.404;13.532;2023-12-20T03:14:44;2.90;;;1.53;;
52480;SDS011;38393;52.404;13.532;2023-12-20T03:17:09;2.87;;;2.13;;
52480;SDS011;38393;52.404;13.532;2023-12-20T03:19:35;2.13;;;1.30;;
52480;SDS011;38393;52.404;13.532;2023-12-20T03:22:01;4.50;;;2.27;;
52480;SDS011;38393;52.404;13.532;2023-12-20T03:24:26;3.00;;;1.93;;
52480;SDS011;38393;52.404;13.532;2023-12-20T03:26:52;1.60;;;1.27;;
52480;SDS011;38393;52.404;13.532;2023-12-20T03:29:18;3.00;;;1.50;;
52480;SDS011;38393;52.404;13.532;2023-12-20T03:31:43;3.43;;;2.00;;
52480;SDS011;38393;52.404;13.532;2023-12-20T03:34:09;2.63;;;1.60;;
52480;SDS011;38393;52.404;13.532;2023-12-20T03:36:35;4.30;;;1.67;;
52480;SDS011;38393;52.404;13.532;2023-12-20T03:39:01;1.43;;;1.13;;
52480;SDS011;38393;52.404;13.532;2023-12-20T03:41:26;2.40;;;1.33;;
52480;SDS011;38393;52.404;13.532;2023-12-20T03:43:52;4.17;;;2.07;;
52480;SDS011;38393;52.404;13.532;2023-12-20T03:46:17;5.33;;;2.00;;
52480;SDS011;38393;52.404;13.532;2023-12-20T03:48:43;3.87;;;2.00;;
52480;SDS011;38393;52.404;13.532;2023-12-20T03:51:08;2.27;;;1.33;;
52480;SDS011;38393;52.404;13.532;2023-12-20T03:53:33;3.27;;;1.57;;
52480;SDS011;38393;52.404;13.532;2023-12-20T03:55:59;3.20;;;2.07;;
52480;SDS011;38393;52.404;13.532;2023-12-20T03:58:24;1.87;;;1.70;;
52480;SDS011;38393;52.404;13.532;2023-12-20T04:00:50;3.87;;;1.50;;
52480;SDS011;38393;52.404;13.532;2023-12-20T04:03:15;1.70;;;1.20;;
52480;SDS011;38393;52.404;13.532;2023-12-20T04:05:41;3.10;;;1.40;;
52480;SDS011;38393;52.404;13.532;2023-12-20T04:08:07;8.87;;;1.20;;
52480;SDS011;38393;52.404;13.532;2023-12-20T04:10:32;1.50;;;1.07;;
52480;SDS011;38393;52.404;13.532;2023-12-20T04:12:58;2.70;;;1.57;;
52480;SDS011;38393;52.404;13.532;2023-12-20T04:15:23;2.17;;;1.30;;
52480;SDS011;38393;52.404;13.532;2023-12-20T04:17:49;4.23;;;1.43;;
52480;SDS011;38393;52.404;13.532;2023-12-20T04:20:14;2.23;;;1.40;;
52480;SDS011;38393;52.404;13.532;2023-12-20T04:22:40;3.07;;;1.60;;
52480;SDS011;38393;52.404;13.532;2023-12-20T04:25:05;3.43;;;1.57;;
52480;SDS011;38393;52.404;13.532;2023-12-20T04:27:31;1.70;;;1.20;;
52480;SDS011;38393;52.404;13.532;2023-12-20T04:29:56;11.03;;;1.97;;
52480;SDS011;38393;52.404;13.532;2023-12-20T04:32:22;3.17;;;1.73;;
52480;SDS011;38393;52.404;13.532;2023-12-20T04:34:47;2.40;;;1.40;;
52480;SDS011;38393;52.404;13.532;2023-12-20T04:37:13;13.33;;;2.23;;
52480;SDS011;38393;52.404;13.532;2023-12-20T04:39:38;8.50;;;1.60;;
52480;SDS011;38393;52.404;13.532;2023-12-20T04:42:05;1.67;;;1.30;;
52480;SDS011;38393;52.404;13.532;2023-12-20T04:44:31;3.07;;;1.63;;
52480;SDS011;38393;52.404;13.532;2023-12-20T04:46:56;5.37;;;1.57;;
52480;SDS011;38393;52.404;13.532;2023-12-20T04:49:22;2.27;;;1.47;;
52480;SDS011;38393;52.404;13.532;2023-12-20T04:51:47;1.63;;;1.00;;
52480;SDS011;38393;52.404;13.532;2023-12-20T04:54:14;2.50;;;1.50;;
52480;SDS011;38393;52.404;13.532;2023-12-20T04:56:39;10.20;;;1.93;;
52480;SDS011;38393;52.404;13.532;2023-12-20T04:59:05;1.63;;;1.10;;
52480;SDS011;38393;52.404;13.532;2023-12-20T05:01:30;7.97;;;1.50;;
52480;SDS011;38393;52.404;13.532;2023-12-20T05:03:56;1.77;;;0.97;;
52480;SDS011;38393;52.404;13.532;2023-12-20T05:06:21;2.20;;;1.67;;
52480;SDS011;38393;52.404;13.532;2023-12-20T05:08:47;4.17;;;1.00;;
52480;SDS011;38393;52.404;13.532;2023-12-20T05:11:12;2.70;;;1.10;;
52480;SDS011;38393;52.404;13.532;2023-12-20T05:13:39;2.43;;;1.63;;
52480;SDS011;38393;52.404;13.532;2023-12-20T05:16:04;3.53;;;1.00;;
52480;SDS011;38393;52.404;13.532;2023-12-20T05:18:30;1.67;;;0.87;;
52480;SDS011;38393;52.404;13.532;2023-12-20T05:20:56;1.03;;;0.93;;
52480;SDS011;38393;52.404;13.532;2023-12-20T05:23:21;1.37;;;0.83;;
52480;SDS011;38393;52.404;13.532;2023-12-20T05:25:47;1.37;;;1.10;;
52480;SDS011;38393;52.404;13.532;2023-12-20T05:28:12;0.50;;;0.50;;
52480;SDS011;38393;52.404;13.532;2023-12-20T05:30:38;1.87;;;0.77;;
52480;SDS011;38393;52.404;13.532;2023-12-20T05:33:03;0.63;;;0.60;;
52480;SDS011;38393;52.404;13.532;2023-12-20T05:35:29;2.50;;;0.83;;
52480;SDS011;38393;52.404;13.532;2023-12-20T05:37:54;0.70;;;0.63;;
52480;SDS011;38393;52.404;13.532;2023-12-20T05:40:20;1.00;;;0.70;;
52480;SDS011;38393;52.404;13.532;2023-12-20T05:42:45;0.80;;;0.80;;
52480;SDS011;38393;52.404;13.532;2023-12-20T05:45:11;0.97;;;0.70;;
52480;SDS011;38393;52.404;13.532;2023-12-20T05:47:36;2.37;;;1.27;;
52480;SDS011;38393;52.404;13.532;2023-12-20T05:50:02;7.30;;;1.03;;
52480;SDS011;38393;52.404;13.532;2023-12-20T05:52:29;2.03;;;0.57;;
52480;SDS011;38393;52.404;13.532;2023-12-20T05:54:54;8.23;;;0.90;;
52480;SDS011;38393;52.404;13.532;2023-12-20T05:57:21;8.30;;;0.60;;
52480;SDS011;38393;52.404;13.532;2023-12-20T05:59:48;0.77;;;0.60;;
52480;SDS011;38393;52.404;13.532;2023-12-20T06:02:13;0.53;;;0.53;;
52480;SDS011;38393;52.404;13.532;2023-12-20T06:04:41;0.40;;;0.40;;
52480;SDS011;38393;52.404;13.532;2023-12-20T06:07:07;0.93;;;0.70;;
52480;SDS011;38393;52.404;13.532;2023-12-20T06:09:33;0.80;;;0.60;;
52480;SDS011;38393;52.404;13.532;2023-12-20T06:11:58;1.37;;;0.40;;
52480;SDS011;38393;52.404;13.532;2023-12-20T06:14:24;1.70;;;0.90;;
52480;SDS011;38393;52.404;13.532;2023-12-20T06:16:50;0.60;;;0.60;;
52480;SDS011;38393;52.404;13.532;2023-12-20T06:19:16;0.83;;;0.63;;
52480;SDS011;38393;52.404;13.532;2023-12-20T06:21:41;0.70;;;0.60;;
52480;SDS011;38393;52.404;13.532;2023-12-20T06:24:07;0.73;;;0.50;;
52480;SDS011;38393;52.404;13.532;2023-12-20T06:26:32;0.60;;;0.60;;
52480;SDS011;38393;52.404;13.532;2023-12-20T06:28:58;1.13;;;0.70;;
52480;SDS011;38393;52.404;13.532;2023-12-20T06:31:23;0.50;;;0.50;;
52480;SDS011;38393;52.404;13.532;2023-12-20T06:33:49;5.60;;;0.73;;
52480;SDS011;38393;52.404;13.532;2023-12-20T06:36:22;1.07;;;0.50;;
52480;SDS011;38393;52.404;13.532;2023-12-20T06:38:48;1.03;;;0.63;;
52480;SDS011;38393;52.404;13.532;2023-12-20T06:41:13;0.30;;;0.30;;
52480;SDS011;38393;52.404;13.532;2023-12-20T06:43:40;3.03;;;1.50;;
52480;SDS011;38393;52.404;13.532;2023-12-20T06:46:05;0.93;;;0.70;;
52480;SDS011;38393;52.404;13.532;2023-12-20T06:48:31;0.57;;;0.50;;
52480;SDS011;38393;52.404;13.532;2023-12-20T06:50:57;1.23;;;1.13;;
52480;SDS011;38393;52.404;13.532;2023-12-20T06:53:25;0.70;;;0.70;;
52480;SDS011;38393;52.404;13.532;2023-12-20T06:55:50;0.63;;;0.60;;
52480;SDS011;38393;52.404;13.532;2023-12-20T06:58:15;0.63;;;0.47;;
52480;SDS011;38393;52.404;13.532;2023-12-20T07:00:41;0.80;;;0.50;;
52480;SDS011;38393;52.404;13.532;2023-12-20T07:03:07;1.13;;;0.60;;
52480;SDS011;38393;52.404;13.532;2023-12-20T07:05:32;0.70;;;0.60;;
52480;SDS011;38393;52.404;13.532;2023-12-20T07:07:58;1.33;;;0.90;;
52480;SDS011;38393;52.404;13.532;2023-12-20T07:10:23;1.03;;;0.40;;
52480;SDS011;38393;52.404;13.532;2023-12-20T07:12:49;0.80;;;0.60;;
52480;SDS011;38393;52.404;13.532;2023-12-20T07:15:16;0.40;;;0.40;;
52480;SDS011;38393;52.404;13.532;2023-12-20T07:17:41;0.93;;;0.70;;
52480;SDS011;38393;52.404;13.532;2023-12-20T07:20:07;0.63;;;0.47;;
52480;SDS011;38393;52.404;13.532;2023-12-20T07:22:35;1.70;;;0.77;;
52480;SDS011;38393;52.404;13.532;2023-12-20T07:25:01;0.70;;;0.67;;
52480;SDS011;38393;52.404;13.532;2023-12-20T07:27:28;0.47;;;0.47;;
52480;SDS011;38393;52.404;13.532;2023-12-20T07:29:54;0.63;;;0.47;;
52480;SDS011;38393;52.404;13.532;2023-12-20T07:32:19;0.33;;;0.33;;
52480;SDS011;38393;52.404;13.532;2023-12-20T07:34:44;13.53;;;0.90;;
52480;SDS011;38393;52.404;13.532;2023-12-20T07:37:10;2.50;;;0.50;;
52480;SDS011;38393;52.404;13.532;2023-12-20T07:39:37;0.77;;;0.50;;
52480;SDS011;38393;52.404;13.532;2023-12-20T07:42:05;0.67;;;0.60;;
52480;SDS011;38393;52.404;13.532;2023-12-20T07:44:30;0.60;;;0.60;;
52480;SDS011;38393;52.404;13.532;2023-12-20T07:46:56;0.60;;;0.40;;
52480;SDS011;38393;52.404;13.532;2023-12-20T07:49:22;5.20;;;0.60;;
52480;SDS011;38393;52.404;13.532;2023-12-20T07:51:48;3.70;;;1.53;;
52480;SDS011;38393;52.404;13.532;2023-12-20T07:54:14;0.70;;;0.60;;
52480;SDS011;38393;52.404;13.532;2023-12-20T07:56:40;0.47;;;0.47;;
52480;SDS011;38393;52.404;13.532;2023-12-20T07:59:06;1.53;;;0.70;;
52480;SDS011;38393;52.404;13.532;2023-12-20T08:01:32;2.33;;;0.80;;
52480;SDS011;38393;52.404;13.532;2023-12-20T08:03:57;1.10;;;1.00;;
52480;SDS011;38393;52.404;13.532;2023-12-20T08:06:23;0.40;;;0.40;;
52480;SDS011;38393;52.404;13.532;2023-12-20T08:08:48;0.60;;;0.60;;
52480;SDS011;38393;52.404;13.532;2023-12-20T08:11:14;0.40;;;0.40;;
52480;SDS011;38393;52.404;13.532;2023-12-20T08:13:39;1.27;;;0.63;;
52480;SDS011;38393;52.404;13.532;2023-12-20T08:16:05;0.90;;;0.50;;
52480;SDS011;38393;52.404;13.532;2023-12-20T08:18:30;0.43;;;0.43;;
52480;SDS011;38393;52.404;13.532;2023-12-20T08:20:56;0.60;;;0.60;;
52480;SDS011;38393;52.404;13.532;2023-12-20T08:23:21;0.40;;;0.40;;
52480;SDS011;38393;52.404;13.532;2023-12-20T08:25:47;0.53;;;0.53;;
52480;SDS011;38393;52.404;13.532;2023-12-20T08:28:13;0.80;;;0.47;;
52480;SDS011;38393;52.404;13.532;2023-12-20T08:30:38;0.67;;;0.47;;
52480;SDS011;38393;52.404;13.532;2023-12-20T08:33:04;0.50;;;0.50;;
52480;SDS011;38393;52.404;13.532;2023-12-20T08:35:32;0.67;;;0.40;;
52480;SDS011;38393;52.404;13.532;2023-12-20T08:37:58;0.50;;;0.40;;
52480;SDS011;38393;52.404;13.532;2023-12-20T08:40:23;2.60;;;0.43;;
52480;SDS011;38393;52.404;13.532;2023-12-20T08:42:49;2.13;;;0.80;;
52480;SDS011;38393;52.404;13.532;2023-12-20T08:45:14;0.73;;;0.60;;
52480;SDS011;38393;52.404;13.532;2023-12-20T08:47:40;1.10;;;0.80;;
52480;SDS011;38393;52.404;13.532;2023-12-20T08:50:06;0.60;;;0.50;;
52480;SDS011;38393;52.404;13.532;2023-12-20T08:52:32;0.60;;;0.50;;
52480;SDS011;38393;52.404;13.532;2023-12-20T08:54:58;0.30;;;0.30;;
52480;SDS011;38393;52.404;13.532;2023-12-20T08:57:23;1.57;;;0.80;;
52480;SDS011;38393;52.404;13.532;2023-12-20T08:59:50;0.73;;;0.50;;
52480;SDS011;38393;52.404;13.532;2023-12-20T09:02:16;1.93;;;0.50;;
52480;SDS011;38393;52.404;13.532;2023-12-20T09:04:42;4.60;;;0.50;;
52480;SDS011;38393;52.404;13.532;2023-12-20T09:07:20;0.63;;;0.47;;
52480;SDS011;38393;52.404;13.532;2023-12-20T09:09:50;0.40;;;0.40;;
52480;SDS011;38393;52.404;13.532;2023-12-20T09:12:17;0.60;;;0.60;;
52480;SDS011;38393;52.404;13.532;2023-12-20T09:14:43;0.40;;;0.40;;
52480;SDS011;38393;52.404;13.532;2023-12-20T09:17:09;1.30;;;0.50;;
52480;SDS011;38393;52.404;13.532;2023-12-20T09:19:36;0.53;;;0.50;;
52480;SDS011;38393;52.404;13.532;2023-12-20T09:22:02;0.40;;;0.40;;
52480;SDS011;38393;52.404;13.532;2023-12-20T09:24:27;0.50;;;0.50;;
52480;SDS011;38393;52.404;13.532;2023-12-20T09:26:52;0.40;;;0.40;;
52480;SDS011;38393;52.404;13.532;2023-12-20T09:29:18;0.50;;;0.50;;
52480;SDS011;38393;52.404;13.532;2023-12-20T09:31:44;0.70;;;0.57;;
52480;SDS011;38393;52.404;13.532;2023-12-20T09:34:11;1.30;;;1.20;;
52480;SDS011;38393;52.404;13.532;2023-12-20T09:36:36;6.23;;;0.83;;
52480;SDS011;38393;52.404;13.532;2023-12-20T09:39:05;1.23;;;0.70;;
52480;SDS011;38393;52.404;13.532;2023-12-20T09:41:31;1.03;;;0.93;;
52480;SDS011;38393;52.404;13.532;2023-12-20T09:44:02;0.43;;;0.43;;
52480;SDS011;38393;52.404;13.532;2023-12-20T09:46:28;0.40;;;0.40;;
52480;SDS011;38393;52.404;13.532;2023-12-20T09:48:58;6.90;;;1.00;;
52480;SDS011;38393;52.404;13.532;2023-12-20T09:51:25;1.27;;;1.10;;
52480;SDS011;38393;52.404;13.532;2023-12-20T09:53:53;2.00;;;0.67;;
52480;SDS011;38393;52.404;13.532;2023-12-20T09:56:19;1.10;;;0.60;;
52480;SDS011;38393;52.404;13.532;2023-12-20T09:58:46;0.90;;;0.80;;
52480;SDS011;38393;52.404;13.532;2023-12-20T10:01:12;0.40;;;0.40;;
52480;SDS011;38393;52.404;13.532;2023-12-20T10:03:39;1.00;;;0.50;;
52480;SDS011;38393;52.404;13.532;2023-12-20T10:06:05;0.77;;;0.50;;
52480;SDS011;38393;52.404;13.532;2023-12-20T10:08:31;0.67;;;0.60;;
52480;SDS011;38393;52.404;13.532;2023-12-20T10:10:57;1.63;;;0.87;;
52480;SDS011;38393;52.404;13.532;2023-12-20T10:13:27;1.07;;;0.60;;
52480;SDS011;38393;52.404;13.532;2023-12-20T10:15:54;0.50;;;0.50;;
52480;SDS011;38393;52.404;13.532;2023-12-20T10:18:20;1.53;;;0.70;;
52480;SDS011;38393;52.404;13.532;2023-12-20T10:20:46;1.00;;;0.70;;
52480;SDS011;38393;52.404;13.532;2023-12-20T10:23:12;1.73;;;0.57;;
52480;SDS011;38393;52.404;13.532;2023-12-20T10:25:38;0.70;;;0.47;;
52480;SDS011;38393;52.404;13.532;2023-12-20T10:28:15;1.13;;;0.80;;
52480;SDS011;38393;52.404;13.532;2023-12-20T10:30:47;7.00;;;0.70;;
52480;SDS011;38393;52.404;13.532;2023-12-20T10:33:13;0.73;;;0.60;;
52480;SDS011;38393;52.404;13.532;2023-12-20T10:35:39;4.23;;;0.60;;
52480;SDS011;38393;52.404;13.532;2023-12-20T10:38:05;1.20;;;0.53;;
52480;SDS011;38393;52.404;13.532;2023-12-20T10:40:34;0.50;;;0.50;;
52480;SDS011;38393;52.404;13.532;2023-12-20T10:43:02;1.00;;;0.90;;
52480;SDS011;38393;52.404;13.532;2023-12-20T10:45:28;0.97;;;0.90;;
52480;SDS011;38393;52.404;13.532;2023-12-20T10:47:53;2.30;;;0.57;;
52480;SDS011;38393;52.404;13.532;2023-12-20T10:50:21;5.93;;;1.13;;
52480;SDS011;38393;52.404;13.532;2023-12-20T10:52:46;0.93;;;0.80;;
52480;SDS011;38393;52.404;13.532;2023-12-20T10:55:13;1.77;;;0.73;;
52480;SDS011;38393;52.404;13.532;2023-12-20T10:57:39;1.30;;;0.83;;
52480;SDS011;38393;52.404;13.532;2023-12-20T11:00:06;4.37;;;0.60;;
52480;SDS011;38393;52.404;13.532;2023-12-20T11:02:39;1.33;;;0.60;;
52480;SDS011;38393;52.404;13.532;2023-12-20T11:08:04;5.30;;;1.33;;
52480;SDS011;38393;52.404;13.532;2023-12-20T11:10:37;1.63;;;0.80;;
52480;SDS011;38393;52.404;13.532;2023-12-20T11:13:28;1.00;;;0.80;;
52480;SDS011;38393;52.404;13.532;2023-12-20T11:15:59;1.03;;;0.93;;
52480;SDS011;38393;52.404;13.532;2023-12-20T11:18:28;0.70;;;0.67;;
52480;SDS011;38393;52.404;13.532;2023-12-20T11:20:55;1.77;;;0.57;;
52480;SDS011;38393;52.404;13.532;2023-12-20T11:23:25;4.30;;;0.90;;
52480;SDS011;38393;52.404;13.532;2023-12-20T11:25:55;1.50;;;0.83;;
52480;SDS011;38393;52.404;13.532;2023-12-20T11:28:24;2.77;;;0.67;;
52480;SDS011;38393;52.404;13.532;2023-12-20T11:30:52;1.17;;;1.00;;
52480;SDS011;38393;52.404;13.532;2023-12-20T11:33:25;5.03;;;1.00;;
52480;SDS011;38393;52.404;13.532;2023-12-20T11:35:57;4.23;;;0.70;;
52480;SDS011;38393;52.404;13.532;2023-12-20T11:38:24;2.30;;;0.97;;
52480;SDS011;38393;52.404;13.532;2023-12-20T11:40:50;0.60;;;0.50;;
52480;SDS011;38393;52.404;13.532;2023-12-20T11:43:36;1.47;;;0.90;;
52480;SDS011;38393;52.404;13.532;2023-12-20T11:46:06;12.03;;;1.00;;
52480;SDS011;38393;52.404;13.532;2023-12-20T11:48:37;0.50;;;0.50;;
52480;SDS011;38393;52.404;13.532;2023-12-20T11:51:12;0.83;;;0.70;;
52480;SDS011;38393;52.404;13.532;2023-12-20T11:53:39;1.10;;;0.70;;
52480;SDS011;38393;52.404;13.532;2023-12-20T11:56:06;0.50;;;0.50;;
52480;SDS011;38393;52.404;13.532;2023-12-20T11:58:32;0.93;;;0.60;;
52480;SDS011;38393;52.404;13.532;2023-12-20T12:00:58;0.53;;;0.47;;
52480;SDS011;38393;52.404;13.532;2023-12-20T12:03:24;0.53;;;0.50;;
52480;SDS011;38393;52.404;13.532;2023-12-20T12:05:50;0.50;;;0.50;;
52480;SDS011;38393;52.404;13.532;2023-12-20T12:08:16;3.00;;;0.80;;
52480;SDS011;38393;52.404;13.532;2023-12-20T12:10:42;0.43;;;0.43;;
52480;SDS011;38393;52.404;13.532;2023-12-20T12:13:08;2.93;;;1.53;;
52480;SDS011;38393;52.404;13.532;2023-12-20T12:15:34;2.73;;;0.73;;
52480;SDS011;38393;52.404;13.532;2023-12-20T12:18:01;0.60;;;0.40;;
52480;SDS011;38393;52.404;13.532;2023-12-20T12:20:27;0.67;;;0.50;;
52480;SDS011;38393;52.404;13.532;2023-12-20T12:25:24;0.87;;;0.70;;
52480;SDS011;38393;52.404;13.532;2023-12-20T12:27:50;10.50;;;1.10;;
52480;SDS011;38393;52.404;13.532;2023-12-20T12:30:16;5.17;;;0.93;;
52480;SDS011;38393;52.404;13.532;2023-12-20T12:32:43;2.60;;;0.87;;
52480;SDS011;38393;52.404;13.532;2023-12-20T12:35:09;5.17;;;1.23;;
52480;SDS011;38393;52.404;13.532;2023-12-20T12:37:37;1.03;;;0.73;;
52480;SDS011;38393;52.404;13.532;2023-12-20T12:40:05;2.37;;;1.20;;
52480;SDS011;38393;52.404;13.532;2023-12-20T12:42:31;0.77;;;0.60;;
52480;SDS011;38393;52.404;13.532;2023-12-20T12:44:57;1.07;;;0.97;;
52480;SDS011;38393;52.404;13.532;2023-12-20T12:47:22;2.10;;;0.90;;
52480;SDS011;38393;52.404;13.532;2023-12-20T12:49:49;0.97;;;0.70;;
52480;SDS011;38393;52.404;13.532;2023-12-20T12:52:17;0.60;;;0.60;;
52480;SDS011;38393;52.404;13.532;2023-12-20T12:54:42;0.70;;;0.70;;
52480;SDS011;38393;52.404;13.532;2023-12-20T12:57:09;0.57;;;0.57;;
52480;SDS011;38393;52.404;13.532;2023-12-20T12:59:35;6.20;;;1.43;;
52480;SDS011;38393;52.404;13.532;2023-12-20T13:02:01;0.60;;;0.60;;
52480;SDS011;38393;52.404;13.532;2023-12-20T13:04:27;1.47;;;1.30;;
52480;SDS011;38393;52.404;13.532;2023-12-20T13:06:52;1.13;;;0.60;;
52480;SDS011;38393;52.404;13.532;2023-12-20T13:09:18;0.77;;;0.70;;
52480;SDS011;38393;52.404;13.532;2023-12-20T13:11:44;0.80;;;0.70;;
52480;SDS011;38393;52.404;13.532;2023-12-20T13:14:10;2.53;;;1.10;;
52480;SDS011;38393;52.404;13.532;2023-12-20T13:16:40;2.33;;;0.80;;
52480;SDS011;38393;52.404;13.532;2023-12-20T13:19:06;0.87;;;0.70;;
52480;SDS011;38393;52.404;13.532;2023-12-20T13:21:31;1.20;;;0.97;;
52480;SDS011;38393;52.404;13.532;2023-12-20T13:23:57;1.20;;;0.67;;
52480;SDS011;38393;52.404;13.532;2023-12-20T13:26:22;0.67;;;0.63;;
52480;SDS011;38393;52.404;13.532;2023-12-20T13:28:48;0.90;;;0.70;;
52480;SDS011;38393;52.404;13.532;2023-12-20T13:31:13;0.80;;;0.70;;
52480;SDS011;38393;52.404;13.532;2023-12-20T13:33:39;1.03;;;0.50;;
52480;SDS011;38393;52.404;13.532;2023-12-20T13:36:05;0.67;;;0.67;;
52480;SDS011;38393;52.404;13.532;2023-12-20T13:38:31;0.73;;;0.63;;
52480;SDS011;38393;52.404;13.532;2023-12-20T13:40:56;4.20;;;1.20;;
52480;SDS011;38393;52.404;13.532;2023-12-20T13:43:23;0.67;;;0.57;;
52480;SDS011;38393;52.404;13.532;2023-12-20T13:45:49;0.70;;;0.70;;
52480;SDS011;38393;52.404;13.532;2023-12-20T13:48:15;0.87;;;0.70;;
52480;SDS011;38393;52.404;13.532;2023-12-20T13:50:41;0.60;;;0.60;;
52480;SDS011;38393;52.404;13.532;2023-12-20T13:53:06;0.60;;;0.60;;
52480;SDS011;38393;52.404;13.532;2023-12-20T13:55:38;0.43;;;0.43;;
52480;SDS011;38393;52.404;13.532;2023-12-20T13:58:03;0.30;;;0.30;;
52480;SDS011;38393;52.404;13.532;2023-12-20T14:00:29;7.43;;;0.40;;
52480;SDS011;38393;52.404;13.532;2023-12-20T14:02:54;0.90;;;0.70;;
52480;SDS011;38393;52.404;13.532;2023-12-20T14:05:21;1.10;;;0.80;;
52480;SDS011;38393;52.404;13.532;2023-12-20T14:07:48;1.77;;;0.70;;
52480;SDS011;38393;52.404;13.532;2023-12-20T14:10:13;1.53;;;0.67;;
52480;SDS011;38393;52.404;13.532;2023-12-20T14:12:39;0.53;;;0.40;;
52480;SDS011;38393;52.404;13.532;2023-12-20T14:15:05;0.50;;;0.50;;
52480;SDS011;38393;52.404;13.532;2023-12-20T14:17:36;0.53;;;0.50;;
52480;SDS011;38393;52.404;13.532;2023-12-20T14:20:05;0.70;;;0.60;;
52480;SDS011;38393;52.404;13.532;2023-12-20T14:22:32;0.60;;;0.53;;
52480;SDS011;38393;52.404;13.532;2023-12-20T14:24:57;0.30;;;0.30;;
52480;SDS011;38393;52.404;13.532;2023-12-20T14:27:23;0.70;;;0.40;;
52480;SDS011;38393;52.404;13.532;2023-12-20T14:29:50;0.50;;;0.50;;
52480;SDS011;38393;52.404;13.532;2023-12-20T14:32:15;0.30;;;0.30;;